createdAt,value
2022-11-05T00:00:08.219Z,994.60
2022-11-05T00:00:18.200Z,994.58
2022-11-05T00:00:28.223Z,994.60
2022-11-05T00:00:38.216Z,994.66
2022-11-05T00:00:48.205Z,994.61
2022-11-05T00:00:58.775Z,994.64
2022-11-05T00:01:08.277Z,994.60
2022-11-05T00:01:18.259Z,994.59
2022-11-05T00:01:28.216Z,994.59
2022-11-05T00:01:38.235Z,994.58
2022-11-05T00:01:48.290Z,994.58
2022-11-05T00:01:58.326Z,994.62
2022-11-05T00:02:08.202Z,994.66
2022-11-05T00:02:18.204Z,994.60
2022-11-05T00:02:28.765Z,994.61
2022-11-05T00:02:38.198Z,994.61
2022-11-05T00:02:48.202Z,994.67
2022-11-05T00:02:58.237Z,994.67
2022-11-05T00:03:08.701Z,994.63
2022-11-05T00:03:18.227Z,994.67
2022-11-05T00:03:28.240Z,994.67
2022-11-05T00:03:38.851Z,994.67
2022-11-05T00:03:48.263Z,994.67
2022-11-05T00:03:58.283Z,994.71
2022-11-05T00:04:08.288Z,994.67
2022-11-05T00:04:18.194Z,994.65
2022-11-05T00:04:30.963Z,994.64
2022-11-05T00:04:38.186Z,994.68
2022-11-05T00:04:48.228Z,994.67
2022-11-05T00:04:58.209Z,994.60
2022-11-05T00:05:08.210Z,994.66
2022-11-05T00:05:18.332Z,994.58
2022-11-05T00:05:28.185Z,994.68
2022-11-05T00:05:38.193Z,994.68
2022-11-05T00:05:48.187Z,994.68
2022-11-05T00:06:00.773Z,994.68
2022-11-05T00:06:08.195Z,994.67
2022-11-05T00:06:18.188Z,994.71
2022-11-05T00:06:28.177Z,994.64
2022-11-05T00:06:38.190Z,994.63
2022-11-05T00:06:48.178Z,994.70
2022-11-05T00:06:58.791Z,994.66
2022-11-05T00:07:08.342Z,994.66
2022-11-05T00:07:18.254Z,994.65
2022-11-05T00:07:28.183Z,994.64
2022-11-05T00:07:38.205Z,994.66
2022-11-05T00:07:48.188Z,994.64
2022-11-05T00:07:58.174Z,994.68
2022-11-05T00:08:08.768Z,994.56
2022-11-05T00:08:18.166Z,994.68
2022-11-05T00:08:28.182Z,994.66
2022-11-05T00:08:38.166Z,994.70
2022-11-05T00:08:48.195Z,994.67
2022-11-05T00:08:58.196Z,994.65
2022-11-05T00:09:08.168Z,994.69
2022-11-05T00:09:18.776Z,994.70
2022-11-05T00:09:28.234Z,994.70
2022-11-05T00:09:38.345Z,994.72
2022-11-05T00:09:48.173Z,994.68
2022-11-05T00:09:58.160Z,994.71
2022-11-05T00:10:08.254Z,994.67
2022-11-05T00:10:18.167Z,994.68
2022-11-05T00:10:28.186Z,994.73
2022-11-05T00:10:38.177Z,994.70
2022-11-05T00:10:48.165Z,994.75
2022-11-05T00:10:58.158Z,994.72
2022-11-05T00:11:08.179Z,994.70
2022-11-05T00:11:18.798Z,994.75
2022-11-05T00:11:28.807Z,994.74
2022-11-05T00:11:38.160Z,994.69
2022-11-05T00:11:48.164Z,994.66
2022-11-05T00:11:58.161Z,994.68
2022-11-05T00:12:08.166Z,994.74
2022-11-05T00:12:18.251Z,994.74
2022-11-05T00:12:28.163Z,994.69
2022-11-05T00:12:38.146Z,994.68
2022-11-05T00:12:48.170Z,994.72
2022-11-05T00:12:58.154Z,994.72
2022-11-05T00:13:08.653Z,994.71
2022-11-05T00:13:18.175Z,994.72
2022-11-05T00:13:28.188Z,994.72
2022-11-05T00:13:38.159Z,994.73
2022-11-05T00:13:48.155Z,994.67
2022-11-05T00:13:58.142Z,994.74
2022-11-05T00:14:08.157Z,994.74
2022-11-05T00:14:18.224Z,994.74
2022-11-05T00:14:28.784Z,994.74
2022-11-05T00:14:38.163Z,994.72
2022-11-05T00:14:48.148Z,994.74
2022-11-05T00:14:58.148Z,994.69
2022-11-05T00:15:08.164Z,994.72
2022-11-05T00:15:18.159Z,994.76
2022-11-05T00:15:28.143Z,994.77
2022-11-05T00:15:38.273Z,994.74
2022-11-05T00:15:48.145Z,994.75
2022-11-05T00:15:58.134Z,994.73
2022-11-05T00:16:08.164Z,994.79
2022-11-05T00:16:18.170Z,994.74
2022-11-05T00:16:28.183Z,994.76
2022-11-05T00:16:38.161Z,994.77
2022-11-05T00:16:48.142Z,994.77
2022-11-05T00:16:58.152Z,994.77
2022-11-05T00:17:08.141Z,994.75
2022-11-05T00:17:18.136Z,994.76
2022-11-05T00:17:28.184Z,994.77
2022-11-05T00:17:38.180Z,994.79
2022-11-05T00:17:48.141Z,994.79
2022-11-05T00:17:58.136Z,994.75
2022-11-05T00:18:08.132Z,994.77
2022-11-05T00:18:18.769Z,994.78
2022-11-05T00:18:28.153Z,994.76
2022-11-05T00:18:38.140Z,994.73
2022-11-05T00:18:48.137Z,994.75
2022-11-05T00:18:58.122Z,994.75
2022-11-05T00:19:08.128Z,994.76
2022-11-05T00:19:18.124Z,994.77
2022-11-05T00:19:28.158Z,994.75
2022-11-05T00:19:38.150Z,994.79
2022-11-05T00:19:48.285Z,994.78
2022-11-05T00:19:58.127Z,994.74
2022-11-05T00:20:08.121Z,994.76
2022-11-05T00:20:18.122Z,994.79
2022-11-05T00:20:28.130Z,994.78
2022-11-05T00:20:38.118Z,994.79
2022-11-05T00:20:48.132Z,994.79
2022-11-05T00:20:58.211Z,994.77
2022-11-05T00:21:08.118Z,994.74
2022-11-05T00:21:18.120Z,994.75
2022-11-05T00:21:28.117Z,994.79
2022-11-05T00:21:38.122Z,994.73
2022-11-05T00:21:48.771Z,994.77
2022-11-05T00:21:58.230Z,994.76
2022-11-05T00:22:08.116Z,994.78
2022-11-05T00:22:18.112Z,994.81
2022-11-05T00:22:28.126Z,994.85
2022-11-05T00:22:38.183Z,994.78
2022-11-05T00:22:48.148Z,994.81
2022-11-05T00:22:58.139Z,994.73
2022-11-05T00:23:08.436Z,994.75
2022-11-05T00:23:18.110Z,994.76
2022-11-05T00:23:28.108Z,994.81
2022-11-05T00:23:38.126Z,994.78
2022-11-05T00:23:48.161Z,994.82
2022-11-05T00:23:58.203Z,994.79
2022-11-05T00:24:08.125Z,994.81
2022-11-05T00:24:23.206Z,994.79
2022-11-05T00:24:28.110Z,994.83
2022-11-05T00:24:38.133Z,994.80
2022-11-05T00:24:48.109Z,994.82
2022-11-05T00:24:58.096Z,994.83
2022-11-05T00:25:08.118Z,994.81
2022-11-05T00:25:18.099Z,994.78
2022-11-05T00:25:28.100Z,994.81
2022-11-05T00:25:38.122Z,994.82
2022-11-05T00:25:48.106Z,994.79
2022-11-05T00:25:58.773Z,994.75
2022-11-05T00:26:08.093Z,994.80
2022-11-05T00:26:18.092Z,994.81
2022-11-05T00:26:28.095Z,994.81
2022-11-05T00:26:38.086Z,994.79
2022-11-05T00:26:48.089Z,994.81
2022-11-05T00:26:58.097Z,994.80
2022-11-05T00:27:08.102Z,994.80
2022-11-05T00:27:18.088Z,994.81
2022-11-05T00:27:28.817Z,994.72
2022-11-05T00:27:38.139Z,994.83
2022-11-05T00:27:48.129Z,994.78
2022-11-05T00:27:58.119Z,994.78
2022-11-05T00:28:08.166Z,994.74
2022-11-05T00:28:18.131Z,994.83
2022-11-05T00:28:28.113Z,994.78
2022-11-05T00:28:38.090Z,994.86
2022-11-05T00:28:48.091Z,994.81
2022-11-05T00:28:58.110Z,994.83
2022-11-05T00:29:08.091Z,994.84
2022-11-05T00:29:18.083Z,994.84
2022-11-05T00:29:28.077Z,994.82
2022-11-05T00:29:38.770Z,994.83
2022-11-05T00:29:48.160Z,994.83
2022-11-05T00:29:58.074Z,994.71
2022-11-05T00:30:08.781Z,994.79
2022-11-05T00:30:18.085Z,994.78
2022-11-05T00:30:28.098Z,994.86
2022-11-05T00:30:38.078Z,994.83
2022-11-05T00:30:48.152Z,994.82
2022-11-05T00:30:58.078Z,994.79
2022-11-05T00:31:08.075Z,994.84
2022-11-05T00:31:18.191Z,994.85
2022-11-05T00:31:28.094Z,994.86
2022-11-05T00:31:38.073Z,994.84
2022-11-05T00:31:48.089Z,994.83
2022-11-05T00:31:58.067Z,994.84
2022-11-05T00:32:08.099Z,994.87
2022-11-05T00:32:18.180Z,994.83
2022-11-05T00:32:28.769Z,994.88
2022-11-05T00:32:38.073Z,994.91
2022-11-05T00:32:48.065Z,994.84
2022-11-05T00:32:58.108Z,994.80
2022-11-05T00:33:09.188Z,994.88
2022-11-05T00:33:18.073Z,994.81
2022-11-05T00:33:28.061Z,994.82
2022-11-05T00:33:38.137Z,994.87
2022-11-05T00:33:48.126Z,994.89
2022-11-05T00:33:58.061Z,994.89
2022-11-05T00:34:08.066Z,994.84
2022-11-05T00:34:18.788Z,994.88
2022-11-05T00:34:28.055Z,994.88
2022-11-05T00:34:38.080Z,994.92
2022-11-05T00:34:48.065Z,994.93
2022-11-05T00:34:58.163Z,994.91
2022-11-05T00:35:08.080Z,994.89
2022-11-05T00:35:18.086Z,994.90
2022-11-05T00:35:28.077Z,994.93
2022-11-05T00:35:38.054Z,994.89
2022-11-05T00:35:48.087Z,994.92
2022-11-05T00:35:58.150Z,994.89
2022-11-05T00:36:08.064Z,994.89
2022-11-05T00:36:18.085Z,994.85
2022-11-05T00:36:28.181Z,994.85
2022-11-05T00:36:38.078Z,994.89
2022-11-05T00:36:48.055Z,994.87
2022-11-05T00:36:58.059Z,994.85
2022-11-05T00:37:08.048Z,994.80
2022-11-05T00:37:18.057Z,994.86
2022-11-05T00:37:28.080Z,994.87
2022-11-05T00:37:38.089Z,994.89
2022-11-05T00:37:50.213Z,994.93
2022-11-05T00:37:58.075Z,994.90
2022-11-05T00:38:08.107Z,994.90
2022-11-05T00:38:18.046Z,994.91
2022-11-05T00:38:28.780Z,994.88
2022-11-05T00:38:38.043Z,994.86
2022-11-05T00:38:48.063Z,994.87
2022-11-05T00:38:58.037Z,994.90
2022-11-05T00:39:08.032Z,994.92
2022-11-05T00:39:18.065Z,994.85
2022-11-05T00:39:28.099Z,994.83
2022-11-05T00:39:38.038Z,994.81
2022-11-05T00:39:48.033Z,994.87
2022-11-05T00:39:58.040Z,994.86
2022-11-05T00:40:08.034Z,994.94
2022-11-05T00:40:18.046Z,994.82
2022-11-05T00:40:28.815Z,994.81
2022-11-05T00:40:38.112Z,994.87
2022-11-05T00:40:48.030Z,994.88
2022-11-05T00:40:58.037Z,994.87
2022-11-05T00:41:08.033Z,994.89
2022-11-05T00:41:18.029Z,994.85
2022-11-05T00:41:28.110Z,994.93
2022-11-05T00:41:38.026Z,994.90
2022-11-05T00:41:48.028Z,994.92
2022-11-05T00:41:58.084Z,994.93
2022-11-05T00:42:08.027Z,994.90
2022-11-05T00:42:18.038Z,994.89
2022-11-05T00:42:28.023Z,994.93
2022-11-05T00:42:38.776Z,994.91
2022-11-05T00:42:48.031Z,994.94
2022-11-05T00:42:58.028Z,994.87
2022-11-05T00:43:08.424Z,994.95
2022-11-05T00:43:18.099Z,994.91
2022-11-05T00:43:28.063Z,994.88
2022-11-05T00:43:38.025Z,994.89
2022-11-05T00:43:48.027Z,994.91
2022-11-05T00:43:58.023Z,994.94
2022-11-05T00:44:08.032Z,994.94
2022-11-05T00:44:18.066Z,994.92
2022-11-05T00:44:28.779Z,994.94
2022-11-05T00:44:38.783Z,994.91
2022-11-05T00:44:48.104Z,994.97
2022-11-05T00:44:58.013Z,994.91
2022-11-05T00:45:08.027Z,994.95
2022-11-05T00:45:18.016Z,994.97
2022-11-05T00:45:28.016Z,994.93
2022-11-05T00:45:38.019Z,994.94
2022-11-05T00:45:48.019Z,994.87
2022-11-05T00:45:58.024Z,994.95
2022-11-05T00:46:08.021Z,994.98
2022-11-05T00:46:18.013Z,994.92
2022-11-05T00:46:28.023Z,994.94
2022-11-05T00:46:38.082Z,994.97
2022-11-05T00:46:48.016Z,994.95
2022-11-05T00:46:59.941Z,994.97
2022-11-05T00:47:08.031Z,994.95
2022-11-05T00:47:18.007Z,994.91
2022-11-05T00:47:27.998Z,994.96
2022-11-05T00:47:38.022Z,994.90
2022-11-05T00:47:48.017Z,994.94
2022-11-05T00:47:58.032Z,994.96
2022-11-05T00:48:08.824Z,994.91
2022-11-05T00:48:18.817Z,994.99
2022-11-05T00:48:28.036Z,994.91
2022-11-05T00:48:38.040Z,994.93
2022-11-05T00:48:48.005Z,994.96
2022-11-05T00:48:57.995Z,994.99
2022-11-05T00:49:07.993Z,994.96
2022-11-05T00:49:18.022Z,994.95
2022-11-05T00:49:28.012Z,994.97
2022-11-05T00:49:38.000Z,995.00
2022-11-05T00:49:48.779Z,994.98
2022-11-05T00:49:58.005Z,995.02
2022-11-05T00:50:07.989Z,994.99
2022-11-05T00:50:18.002Z,994.98
2022-11-05T00:50:28.002Z,994.93
2022-11-05T00:50:38.001Z,994.94
2022-11-05T00:50:47.990Z,995.00
2022-11-05T00:50:58.787Z,995.04
2022-11-05T00:51:07.991Z,995.01
2022-11-05T00:51:17.990Z,995.00
2022-11-05T00:51:27.979Z,995.02
2022-11-05T00:51:37.987Z,995.00
2022-11-05T00:51:50.786Z,995.02
2022-11-05T00:51:57.993Z,995.04
2022-11-05T00:52:07.995Z,994.98
2022-11-05T00:52:18.118Z,995.01
2022-11-05T00:52:27.984Z,995.01
2022-11-05T00:52:38.016Z,995.04
2022-11-05T00:52:48.001Z,995.03
2022-11-05T00:52:58.227Z,995.02
2022-11-05T00:53:09.102Z,994.97
2022-11-05T00:53:17.981Z,995.02
2022-11-05T00:53:27.997Z,994.97
2022-11-05T00:53:38.054Z,994.99
2022-11-05T00:53:47.977Z,995.06
2022-11-05T00:53:57.975Z,995.05
2022-11-05T00:54:07.980Z,995.06
2022-11-05T00:54:18.001Z,995.04
2022-11-05T00:54:27.977Z,995.04
2022-11-05T00:54:37.977Z,995.03
2022-11-05T00:54:47.997Z,995.09
2022-11-05T00:54:57.988Z,995.01
2022-11-05T00:55:08.788Z,994.99
2022-11-05T00:55:17.976Z,995.04
2022-11-05T00:55:27.971Z,995.03
2022-11-05T00:55:38.791Z,995.01
2022-11-05T00:55:47.972Z,995.02
2022-11-05T00:55:57.977Z,995.05
2022-11-05T00:56:07.989Z,995.07
2022-11-05T00:56:17.971Z,994.99
2022-11-05T00:56:27.960Z,995.00
2022-11-05T00:56:37.974Z,994.96
2022-11-05T00:56:47.960Z,995.02
2022-11-05T00:57:03.463Z,995.02
2022-11-05T00:57:07.988Z,995.00
2022-11-05T00:57:18.086Z,995.06
2022-11-05T00:57:27.954Z,995.04
2022-11-05T00:57:37.965Z,995.05
2022-11-05T00:57:47.970Z,995.05
2022-11-05T00:57:57.956Z,995.03
2022-11-05T00:58:08.065Z,995.06
2022-11-05T00:58:17.971Z,995.04
2022-11-05T00:58:27.965Z,995.04
2022-11-05T00:58:38.804Z,995.05
2022-11-05T00:58:47.998Z,995.06
2022-11-05T00:58:57.965Z,995.07
2022-11-05T00:59:07.972Z,995.08
2022-11-05T00:59:18.786Z,995.08
2022-11-05T00:59:27.946Z,995.05
2022-11-05T00:59:37.993Z,995.03
2022-11-05T00:59:47.979Z,995.04
2022-11-05T00:59:57.947Z,995.05
2022-11-05T01:00:07.949Z,995.01
2022-11-05T01:00:17.968Z,995.05
2022-11-05T01:00:27.945Z,995.07
2022-11-05T01:00:37.950Z,995.03
2022-11-05T01:00:47.939Z,995.02
2022-11-05T01:00:57.948Z,995.08
2022-11-05T01:01:07.956Z,995.08
2022-11-05T01:01:18.957Z,995.07
2022-11-05T01:01:28.043Z,995.08
2022-11-05T01:01:38.051Z,995.09
2022-11-05T01:01:48.073Z,995.09
2022-11-05T01:01:58.234Z,995.09
2022-11-05T01:02:08.028Z,995.05
2022-11-05T01:02:18.223Z,995.05
2022-11-05T01:02:28.058Z,995.05
2022-11-05T01:02:38.136Z,995.10
2022-11-05T01:02:48.079Z,995.10
2022-11-05T01:02:57.984Z,995.12
2022-11-05T01:03:08.224Z,995.10
2022-11-05T01:03:17.952Z,995.14
2022-11-05T01:03:28.826Z,995.12
2022-11-05T01:03:37.935Z,995.10
2022-11-05T01:03:51.696Z,995.11
2022-11-05T01:03:57.974Z,995.09
2022-11-05T01:04:07.935Z,995.10
2022-11-05T01:04:18.031Z,995.14
2022-11-05T01:04:27.953Z,995.12
2022-11-05T01:04:37.976Z,995.06
2022-11-05T01:04:47.929Z,995.11
2022-11-05T01:04:58.071Z,995.12
2022-11-05T01:05:07.935Z,995.13
2022-11-05T01:05:18.119Z,995.14
2022-11-05T01:05:27.957Z,995.14
2022-11-05T01:05:38.076Z,995.16
2022-11-05T01:05:47.929Z,995.18
2022-11-05T01:05:57.934Z,995.16
2022-11-05T01:06:07.916Z,995.14
2022-11-05T01:06:17.929Z,995.13
2022-11-05T01:06:27.919Z,995.11
2022-11-05T01:06:37.938Z,995.14
2022-11-05T01:06:47.932Z,995.19
2022-11-05T01:06:57.918Z,995.12
2022-11-05T01:07:07.926Z,995.12
2022-11-05T01:07:17.917Z,995.18
2022-11-05T01:07:28.812Z,995.17
2022-11-05T01:07:38.052Z,995.19
2022-11-05T01:07:47.923Z,995.17
2022-11-05T01:07:57.921Z,995.15
2022-11-05T01:08:07.909Z,995.20
2022-11-05T01:08:17.943Z,995.16
2022-11-05T01:08:27.927Z,995.16
2022-11-05T01:08:37.931Z,995.14
2022-11-05T01:08:47.943Z,995.13
2022-11-05T01:08:57.909Z,995.14
2022-11-05T01:09:07.944Z,995.11
2022-11-05T01:09:17.930Z,995.17
2022-11-05T01:09:28.006Z,995.17
2022-11-05T01:09:37.993Z,995.18
2022-11-05T01:09:47.901Z,995.17
2022-11-05T01:09:57.911Z,995.15
2022-11-05T01:10:07.906Z,995.20
2022-11-05T01:10:17.903Z,995.22
2022-11-05T01:10:27.982Z,995.13
2022-11-05T01:10:37.912Z,995.23
2022-11-05T01:10:47.908Z,995.19
2022-11-05T01:10:58.932Z,995.20
2022-11-05T01:11:07.915Z,995.18
2022-11-05T01:11:17.934Z,995.22
2022-11-05T01:11:27.909Z,995.12
2022-11-05T01:11:37.929Z,995.23
2022-11-05T01:11:48.015Z,995.17
2022-11-05T01:11:57.895Z,995.17
2022-11-05T01:12:07.892Z,995.13
2022-11-05T01:12:17.912Z,995.15
2022-11-05T01:12:27.910Z,995.16
2022-11-05T01:12:37.901Z,995.17
2022-11-05T01:12:47.896Z,995.18
2022-11-05T01:12:57.909Z,995.16
2022-11-05T01:13:12.654Z,995.18
2022-11-05T01:13:18.233Z,995.20
2022-11-05T01:13:27.901Z,995.21
2022-11-05T01:13:37.889Z,995.17
2022-11-05T01:13:48.050Z,995.18
2022-11-05T01:13:58.115Z,995.17
2022-11-05T01:14:07.898Z,995.16
2022-11-05T01:14:18.012Z,995.20
2022-11-05T01:14:27.887Z,995.17
2022-11-05T01:14:37.892Z,995.20
2022-11-05T01:14:48.009Z,995.16
2022-11-05T01:14:57.894Z,995.18
2022-11-05T01:15:07.880Z,995.16
2022-11-05T01:15:17.879Z,995.18
2022-11-05T01:15:27.888Z,995.21
2022-11-05T01:15:37.880Z,995.18
2022-11-05T01:15:47.892Z,995.15
2022-11-05T01:15:58.007Z,995.21
2022-11-05T01:16:07.878Z,995.17
2022-11-05T01:16:17.882Z,995.15
2022-11-05T01:16:27.878Z,995.18
2022-11-05T01:16:37.879Z,995.20
2022-11-05T01:16:47.904Z,995.10
2022-11-05T01:16:57.879Z,995.14
2022-11-05T01:17:07.878Z,995.16
2022-11-05T01:17:17.876Z,995.18
2022-11-05T01:17:27.882Z,995.16
2022-11-05T01:17:37.875Z,995.17
2022-11-05T01:17:47.927Z,995.18
2022-11-05T01:17:58.890Z,995.18
2022-11-05T01:18:07.869Z,995.17
2022-11-05T01:18:18.083Z,995.20
2022-11-05T01:18:27.884Z,995.16
2022-11-05T01:18:38.783Z,995.15
2022-11-05T01:18:48.820Z,995.12
2022-11-05T01:18:57.865Z,995.16
2022-11-05T01:19:07.865Z,995.14
2022-11-05T01:19:17.868Z,995.10
2022-11-05T01:19:27.908Z,995.04
2022-11-05T01:19:37.877Z,995.10
2022-11-05T01:19:47.888Z,995.07
2022-11-05T01:19:57.874Z,995.11
2022-11-05T01:20:07.936Z,995.11
2022-11-05T01:20:17.861Z,995.13
2022-11-05T01:20:27.857Z,995.14
2022-11-05T01:20:37.892Z,995.10
2022-11-05T01:20:47.865Z,995.15
2022-11-05T01:20:57.899Z,995.17
2022-11-05T01:21:07.882Z,995.12
2022-11-05T01:21:17.864Z,995.14
2022-11-05T01:21:27.871Z,995.20
2022-11-05T01:21:37.881Z,995.14
2022-11-05T01:21:48.792Z,995.12
2022-11-05T01:21:57.876Z,995.12
2022-11-05T01:22:08.870Z,995.19
2022-11-05T01:22:18.782Z,995.17
2022-11-05T01:22:27.876Z,995.15
2022-11-05T01:22:37.856Z,995.20
2022-11-05T01:22:47.850Z,995.14
2022-11-05T01:22:57.860Z,995.16
2022-11-05T01:23:13.140Z,995.21
2022-11-05T01:23:18.166Z,995.18
2022-11-05T01:23:28.008Z,995.18
2022-11-05T01:23:37.866Z,995.18
2022-11-05T01:23:47.849Z,995.13
2022-11-05T01:23:57.881Z,995.12
2022-11-05T01:24:07.922Z,995.17
2022-11-05T01:24:18.779Z,995.16
2022-11-05T01:24:27.869Z,995.23
2022-11-05T01:24:37.908Z,995.16
2022-11-05T01:24:47.852Z,995.13
2022-11-05T01:24:57.928Z,995.12
2022-11-05T01:25:07.843Z,995.11
2022-11-05T01:25:17.924Z,995.13
2022-11-05T01:25:27.867Z,995.18
2022-11-05T01:25:37.951Z,995.15
2022-11-05T01:25:47.841Z,995.17
2022-11-05T01:25:57.837Z,995.16
2022-11-05T01:26:07.866Z,995.21
2022-11-05T01:26:17.872Z,995.18
2022-11-05T01:26:27.938Z,995.15
2022-11-05T01:26:37.846Z,995.20
2022-11-05T01:26:47.915Z,995.21
2022-11-05T01:26:57.849Z,995.22
2022-11-05T01:27:07.875Z,995.18
2022-11-05T01:27:17.824Z,995.22
2022-11-05T01:27:27.841Z,995.21
2022-11-05T01:27:37.833Z,995.16
2022-11-05T01:27:47.840Z,995.17
2022-11-05T01:27:57.850Z,995.20
2022-11-05T01:28:07.885Z,995.18
2022-11-05T01:28:18.981Z,995.22
2022-11-05T01:28:28.033Z,995.23
2022-11-05T01:28:37.887Z,995.24
2022-11-05T01:28:47.867Z,995.22
2022-11-05T01:28:58.005Z,995.26
2022-11-05T01:29:07.974Z,995.23
2022-11-05T01:29:17.823Z,995.26
2022-11-05T01:29:27.824Z,995.23
2022-11-05T01:29:37.825Z,995.22
2022-11-05T01:29:47.876Z,995.25
2022-11-05T01:29:57.821Z,995.26
2022-11-05T01:30:07.850Z,995.24
2022-11-05T01:30:17.827Z,995.22
2022-11-05T01:30:27.922Z,995.21
2022-11-05T01:30:37.823Z,995.17
2022-11-05T01:30:47.833Z,995.20
2022-11-05T01:30:57.833Z,995.23
2022-11-05T01:31:07.832Z,995.25
2022-11-05T01:31:17.840Z,995.21
2022-11-05T01:31:27.826Z,995.20
2022-11-05T01:31:37.815Z,995.18
2022-11-05T01:31:47.836Z,995.29
2022-11-05T01:31:57.835Z,995.29
2022-11-05T01:32:07.819Z,995.25
2022-11-05T01:32:17.844Z,995.25
2022-11-05T01:32:27.832Z,995.28
2022-11-05T01:32:37.979Z,995.26
2022-11-05T01:32:47.810Z,995.31
2022-11-05T01:32:57.813Z,995.35
2022-11-05T01:33:08.034Z,995.27
2022-11-05T01:33:17.803Z,995.30
2022-11-05T01:33:27.817Z,995.29
2022-11-05T01:33:37.800Z,995.29
2022-11-05T01:33:47.815Z,995.29
2022-11-05T01:33:57.796Z,995.30
2022-11-05T01:34:07.835Z,995.36
2022-11-05T01:34:17.797Z,995.29
2022-11-05T01:34:27.820Z,995.30
2022-11-05T01:34:37.891Z,995.28
2022-11-05T01:34:47.812Z,995.31
2022-11-05T01:34:58.370Z,995.30
2022-11-05T01:35:07.799Z,995.34
2022-11-05T01:35:17.812Z,995.30
2022-11-05T01:35:27.824Z,995.40
2022-11-05T01:35:37.849Z,995.36
2022-11-05T01:35:47.834Z,995.33
2022-11-05T01:35:57.800Z,995.34
2022-11-05T01:36:07.791Z,995.37
2022-11-05T01:36:17.808Z,995.36
2022-11-05T01:36:27.801Z,995.38
2022-11-05T01:36:37.840Z,995.38
2022-11-05T01:36:47.801Z,995.37
2022-11-05T01:36:57.792Z,995.37
2022-11-05T01:37:07.790Z,995.31
2022-11-05T01:37:17.786Z,995.42
2022-11-05T01:37:27.811Z,995.33
2022-11-05T01:37:37.807Z,995.37
2022-11-05T01:37:47.787Z,995.32
2022-11-05T01:37:57.877Z,995.37
2022-11-05T01:38:07.808Z,995.37
2022-11-05T01:38:17.789Z,995.36
2022-11-05T01:38:27.787Z,995.41
2022-11-05T01:38:38.308Z,995.39
2022-11-05T01:38:47.947Z,995.41
2022-11-05T01:38:57.782Z,995.38
2022-11-05T01:39:07.802Z,995.39
2022-11-05T01:39:17.799Z,995.43
2022-11-05T01:39:27.787Z,995.45
2022-11-05T01:39:37.773Z,995.43
2022-11-05T01:39:47.799Z,995.39
2022-11-05T01:39:57.778Z,995.39
2022-11-05T01:40:08.022Z,995.41
2022-11-05T01:40:17.794Z,995.45
2022-11-05T01:40:27.786Z,995.38
2022-11-05T01:40:37.772Z,995.39
2022-11-05T01:40:48.297Z,995.43
2022-11-05T01:40:57.901Z,995.46
2022-11-05T01:41:07.774Z,995.44
2022-11-05T01:41:17.766Z,995.46
2022-11-05T01:41:27.787Z,995.46
2022-11-05T01:41:38.299Z,995.43
2022-11-05T01:41:47.779Z,995.48
2022-11-05T01:41:57.779Z,995.46
2022-11-05T01:42:07.772Z,995.48
2022-11-05T01:42:17.774Z,995.39
2022-11-05T01:42:27.799Z,995.53
2022-11-05T01:42:37.790Z,995.46
2022-11-05T01:42:47.910Z,995.55
2022-11-05T01:42:57.864Z,995.49
2022-11-05T01:43:08.030Z,995.51
2022-11-05T01:43:17.768Z,995.49
2022-11-05T01:43:28.769Z,995.48
2022-11-05T01:43:37.854Z,995.46
2022-11-05T01:43:47.783Z,995.44
2022-11-05T01:43:57.821Z,995.50
2022-11-05T01:44:07.777Z,995.48
2022-11-05T01:44:17.771Z,995.48
2022-11-05T01:44:27.760Z,995.47
2022-11-05T01:44:37.786Z,995.50
2022-11-05T01:44:47.765Z,995.52
2022-11-05T01:44:58.312Z,995.50
2022-11-05T01:45:07.753Z,995.50
2022-11-05T01:45:17.808Z,995.51
2022-11-05T01:45:27.772Z,995.48
2022-11-05T01:45:37.747Z,995.47
2022-11-05T01:45:47.759Z,995.48
2022-11-05T01:45:57.776Z,995.47
2022-11-05T01:46:07.762Z,995.44
2022-11-05T01:46:17.841Z,995.55
2022-11-05T01:46:27.776Z,995.51
2022-11-05T01:46:37.755Z,995.48
2022-11-05T01:46:47.750Z,995.50
2022-11-05T01:46:57.776Z,995.58
2022-11-05T01:47:07.821Z,995.49
2022-11-05T01:47:17.767Z,995.57
2022-11-05T01:47:27.783Z,995.55
2022-11-05T01:47:37.750Z,995.53
2022-11-05T01:47:47.756Z,995.55
2022-11-05T01:47:57.758Z,995.55
2022-11-05T01:48:07.763Z,995.59
2022-11-05T01:48:17.751Z,995.54
2022-11-05T01:48:27.801Z,995.54
2022-11-05T01:48:37.766Z,995.55
2022-11-05T01:48:47.737Z,995.56
2022-11-05T01:49:02.979Z,995.60
2022-11-05T01:49:07.805Z,995.63
2022-11-05T01:49:18.291Z,995.61
2022-11-05T01:49:27.739Z,995.60
2022-11-05T01:49:37.743Z,995.56
2022-11-05T01:49:47.753Z,995.64
2022-11-05T01:49:57.740Z,995.57
2022-11-05T01:50:07.736Z,995.63
2022-11-05T01:50:17.765Z,995.70
2022-11-05T01:50:27.815Z,995.69
2022-11-05T01:50:37.733Z,995.67
2022-11-05T01:50:48.300Z,995.66
2022-11-05T01:50:57.743Z,995.72
2022-11-05T01:51:07.740Z,995.68
2022-11-05T01:51:17.819Z,995.56
2022-11-05T01:51:27.909Z,995.61
2022-11-05T01:51:37.736Z,995.61
2022-11-05T01:51:47.723Z,995.65
2022-11-05T01:51:57.718Z,995.51
2022-11-05T01:52:07.764Z,995.63
2022-11-05T01:52:18.317Z,995.68
2022-11-05T01:52:27.735Z,995.66
2022-11-05T01:52:37.727Z,995.68
2022-11-05T01:52:47.721Z,995.66
2022-11-05T01:52:57.861Z,995.69
2022-11-05T01:53:08.091Z,995.68
2022-11-05T01:53:18.303Z,995.73
2022-11-05T01:53:27.725Z,995.69
2022-11-05T01:53:37.718Z,995.73
2022-11-05T01:53:47.731Z,995.76
2022-11-05T01:53:57.726Z,995.71
2022-11-05T01:54:07.733Z,995.73
2022-11-05T01:54:17.730Z,995.78
2022-11-05T01:54:27.734Z,995.75
2022-11-05T01:54:37.707Z,995.76
2022-11-05T01:54:47.739Z,995.68
2022-11-05T01:54:57.706Z,995.68
2022-11-05T01:55:07.816Z,995.65
2022-11-05T01:55:17.723Z,995.70
2022-11-05T01:55:27.790Z,995.76
2022-11-05T01:55:37.761Z,995.78
2022-11-05T01:55:47.708Z,995.78
2022-11-05T01:55:57.739Z,995.78
2022-11-05T01:56:07.710Z,995.72
2022-11-05T01:56:18.299Z,995.77
2022-11-05T01:56:27.709Z,995.74
2022-11-05T01:56:37.743Z,995.69
2022-11-05T01:56:47.713Z,995.79
2022-11-05T01:56:57.718Z,995.77
2022-11-05T01:57:07.705Z,995.73
2022-11-05T01:57:17.769Z,995.77
2022-11-05T01:57:28.323Z,995.79
2022-11-05T01:57:37.728Z,995.76
2022-11-05T01:57:47.714Z,995.84
2022-11-05T01:57:57.747Z,995.73
2022-11-05T01:58:07.707Z,995.81
2022-11-05T01:58:17.695Z,995.75
2022-11-05T01:58:27.703Z,995.76
2022-11-05T01:58:37.694Z,995.78
2022-11-05T01:58:47.700Z,995.75
2022-11-05T01:58:57.695Z,995.76
2022-11-05T01:59:07.694Z,995.76
2022-11-05T01:59:17.716Z,995.77
2022-11-05T01:59:28.318Z,995.84
2022-11-05T01:59:37.768Z,995.81
2022-11-05T01:59:48.306Z,995.76
2022-11-05T01:59:57.717Z,995.82
2022-11-05T02:00:07.699Z,995.86
2022-11-05T02:00:17.735Z,995.77
2022-11-05T02:00:27.824Z,995.85
2022-11-05T02:00:37.696Z,995.88
2022-11-05T02:00:47.775Z,995.85
2022-11-05T02:00:57.707Z,995.78
2022-11-05T02:01:07.682Z,995.82
2022-11-05T02:01:18.513Z,995.82
2022-11-05T02:01:27.854Z,995.79
2022-11-05T02:01:37.864Z,995.86
2022-11-05T02:01:47.872Z,995.75
2022-11-05T02:01:57.784Z,995.74
2022-11-05T02:02:07.919Z,995.73
2022-11-05T02:02:17.865Z,995.67
2022-11-05T02:02:27.838Z,995.69
2022-11-05T02:02:37.872Z,995.75
2022-11-05T02:02:47.809Z,995.77
2022-11-05T02:02:57.773Z,995.82
2022-11-05T02:03:08.680Z,995.83
2022-11-05T02:03:18.314Z,995.71
2022-11-05T02:03:27.689Z,995.75
2022-11-05T02:03:38.335Z,995.79
2022-11-05T02:03:48.299Z,995.78
2022-11-05T02:03:57.731Z,995.77
2022-11-05T02:04:07.695Z,995.73
2022-11-05T02:04:17.754Z,995.71
2022-11-05T02:04:27.684Z,995.81
2022-11-05T02:04:37.688Z,995.82
2022-11-05T02:04:47.677Z,995.81